sensor_id;sensor_type;location;lat;lon;timestamp;P1;durP1;ratioP1;P2;durP2;ratioP2
47053;SDS011;32811;52.382;5.270;2023-11-21T00:01:16;13.52;;;8.70;;
47053;SDS011;32811;52.382;5.270;2023-11-21T00:03:43;12.80;;;7.68;;
47053;SDS011;32811;52.382;5.270;2023-11-21T00:06:10;9.07;;;7.10;;
47053;SDS011;32811;52.382;5.270;2023-11-21T00:08:40;10.68;;;8.05;;
47053;SDS011;32811;52.382;5.270;2023-11-21T00:11:06;10.95;;;6.53;;
47053;SDS011;32811;52.382;5.270;2023-11-21T00:13:33;10.52;;;7.28;;
47053;SDS011;32811;52.382;5.270;2023-11-21T00:16:00;11.85;;;7.28;;
47053;SDS011;32811;52.382;5.270;2023-11-21T00:18:27;17.33;;;8.05;;
47053;SDS011;32811;52.382;5.270;2023-11-21T00:20:53;13.23;;;7.57;;
47053;SDS011;32811;52.382;5.270;2023-11-21T00:23:20;9.63;;;7.43;;
47053;SDS011;32811;52.382;5.270;2023-11-21T00:25:46;14.82;;;7.80;;
47053;SDS011;32811;52.382;5.270;2023-11-21T00:28:13;12.75;;;8.05;;
47053;SDS011;32811;52.382;5.270;2023-11-21T00:30:40;14.73;;;8.40;;
47053;SDS011;32811;52.382;5.270;2023-11-21T00:33:07;7.97;;;6.80;;
47053;SDS011;32811;52.382;5.270;2023-11-21T00:35:33;13.55;;;6.85;;
47053;SDS011;32811;52.382;5.270;2023-11-21T00:38:00;13.27;;;7.60;;
47053;SDS011;32811;52.382;5.270;2023-11-21T00:40:27;15.43;;;7.72;;
47053;SDS011;32811;52.382;5.270;2023-11-21T00:42:53;9.43;;;6.47;;
47053;SDS011;32811;52.382;5.270;2023-11-21T00:45:20;10.52;;;6.80;;
47053;SDS011;32811;52.382;5.270;2023-11-21T00:47:46;10.07;;;7.05;;
47053;SDS011;32811;52.382;5.270;2023-11-21T00:50:13;7.78;;;6.95;;
47053;SDS011;32811;52.382;5.270;2023-11-21T00:52:40;10.50;;;7.07;;
47053;SDS011;32811;52.382;5.270;2023-11-21T00:55:07;10.48;;;7.85;;
47053;SDS011;32811;52.382;5.270;2023-11-21T00:57:34;11.15;;;7.05;;
47053;SDS011;32811;52.382;5.270;2023-11-21T01:00:01;12.70;;;7.55;;
47053;SDS011;32811;52.382;5.270;2023-11-21T01:02:33;11.27;;;6.60;;
47053;SDS011;32811;52.382;5.270;2023-11-21T01:05:02;10.65;;;7.00;;
47053;SDS011;32811;52.382;5.270;2023-11-21T01:07:28;9.38;;;7.50;;
47053;SDS011;32811;52.382;5.270;2023-11-21T01:09:55;8.70;;;6.88;;
47053;SDS011;32811;52.382;5.270;2023-11-21T01:12:23;8.27;;;6.72;;
47053;SDS011;32811;52.382;5.270;2023-11-21T01:14:51;15.07;;;8.50;;
47053;SDS011;32811;52.382;5.270;2023-11-21T01:17:18;12.82;;;7.68;;
47053;SDS011;32811;52.382;5.270;2023-11-21T01:19:48;10.70;;;8.30;;
47053;SDS011;32811;52.382;5.270;2023-11-21T01:22:15;8.55;;;7.38;;
47053;SDS011;32811;52.382;5.270;2023-11-21T01:24:42;8.75;;;7.05;;
47053;SDS011;32811;52.382;5.270;2023-11-21T01:27:09;11.23;;;7.40;;
47053;SDS011;32811;52.382;5.270;2023-11-21T01:29:36;13.38;;;7.15;;
47053;SDS011;32811;52.382;5.270;2023-11-21T01:32:02;13.43;;;8.30;;
47053;SDS011;32811;52.382;5.270;2023-11-21T01:34:30;10.85;;;8.15;;
47053;SDS011;32811;52.382;5.270;2023-11-21T01:36:57;9.13;;;6.72;;
47053;SDS011;32811;52.382;5.270;2023-11-21T01:39:24;8.30;;;6.38;;
47053;SDS011;32811;52.382;5.270;2023-11-21T01:41:52;8.63;;;6.63;;
47053;SDS011;32811;52.382;5.270;2023-11-21T01:44:18;10.18;;;7.03;;
47053;SDS011;32811;52.382;5.270;2023-11-21T01:46:45;8.43;;;6.35;;
47053;SDS011;32811;52.382;5.270;2023-11-21T01:49:14;6.68;;;5.95;;
47053;SDS011;32811;52.382;5.270;2023-11-21T01:51:43;9.50;;;6.10;;
47053;SDS011;32811;52.382;5.270;2023-11-21T01:54:13;9.10;;;6.55;;
47053;SDS011;32811;52.382;5.270;2023-11-21T01:56:46;7.97;;;5.90;;
47053;SDS011;32811;52.382;5.270;2023-11-21T01:59:20;8.30;;;6.28;;
47053;SDS011;32811;52.382;5.270;2023-11-21T02:01:50;10.32;;;5.90;;
47053;SDS011;32811;52.382;5.270;2023-11-21T02:04:17;8.68;;;5.90;;
47053;SDS011;32811;52.382;5.270;2023-11-21T02:06:44;8.98;;;5.25;;
47053;SDS011;32811;52.382;5.270;2023-11-21T02:09:11;10.65;;;6.05;;
47053;SDS011;32811;52.382;5.270;2023-11-21T02:11:41;8.90;;;6.03;;
47053;SDS011;32811;52.382;5.270;2023-11-21T02:14:08;6.68;;;5.68;;
47053;SDS011;32811;52.382;5.270;2023-11-21T02:16:36;11.57;;;6.70;;
47053;SDS011;32811;52.382;5.270;2023-11-21T02:19:03;9.45;;;5.70;;
47053;SDS011;32811;52.382;5.270;2023-11-21T02:21:36;9.35;;;5.63;;
47053;SDS011;32811;52.382;5.270;2023-11-21T02:24:07;9.15;;;5.82;;
47053;SDS011;32811;52.382;5.270;2023-11-21T02:26:34;12.75;;;6.80;;
47053;SDS011;32811;52.382;5.270;2023-11-21T02:29:01;8.13;;;6.05;;
47053;SDS011;32811;52.382;5.270;2023-11-21T02:31:30;9.40;;;4.97;;
47053;SDS011;32811;52.382;5.270;2023-11-21T02:33:59;7.25;;;4.90;;
47053;SDS011;32811;52.382;5.270;2023-11-21T02:36:28;7.35;;;5.45;;
47053;SDS011;32811;52.382;5.270;2023-11-21T02:38:57;10.38;;;5.90;;
47053;SDS011;32811;52.382;5.270;2023-11-21T02:41:24;6.10;;;4.95;;
47053;SDS011;32811;52.382;5.270;2023-11-21T02:43:52;10.10;;;5.95;;
47053;SDS011;32811;52.382;5.270;2023-11-21T02:46:18;8.55;;;5.80;;
47053;SDS011;32811;52.382;5.270;2023-11-21T02:48:45;6.82;;;4.97;;
47053;SDS011;32811;52.382;5.270;2023-11-21T02:51:12;9.75;;;5.15;;
47053;SDS011;32811;52.382;5.270;2023-11-21T02:53:38;9.63;;;5.20;;
47053;SDS011;32811;52.382;5.270;2023-11-21T02:56:05;7.03;;;5.18;;
47053;SDS011;32811;52.382;5.270;2023-11-21T02:58:33;9.65;;;5.53;;
47053;SDS011;32811;52.382;5.270;2023-11-21T03:01:00;7.45;;;4.97;;
47053;SDS011;32811;52.382;5.270;2023-11-21T03:03:27;8.32;;;4.90;;
47053;SDS011;32811;52.382;5.270;2023-11-21T03:05:53;9.25;;;5.35;;
47053;SDS011;32811;52.382;5.270;2023-11-21T03:08:20;8.38;;;5.57;;
47053;SDS011;32811;52.382;5.270;2023-11-21T03:10:47;9.40;;;5.60;;
47053;SDS011;32811;52.382;5.270;2023-11-21T03:13:13;9.02;;;5.18;;
47053;SDS011;32811;52.382;5.270;2023-11-21T03:15:40;10.48;;;4.93;;
47053;SDS011;32811;52.382;5.270;2023-11-21T03:18:07;7.65;;;5.13;;
47053;SDS011;32811;52.382;5.270;2023-11-21T03:20:34;6.38;;;4.90;;
47053;SDS011;32811;52.382;5.270;2023-11-21T03:23:01;8.77;;;5.15;;
47053;SDS011;32811;52.382;5.270;2023-11-21T03:25:28;6.70;;;4.93;;
47053;SDS011;32811;52.382;5.270;2023-11-21T03:27:54;10.82;;;5.65;;
47053;SDS011;32811;52.382;5.270;2023-11-21T03:30:21;7.90;;;5.05;;
47053;SDS011;32811;52.382;5.270;2023-11-21T03:32:48;7.75;;;5.10;;
47053;SDS011;32811;52.382;5.270;2023-11-21T03:35:14;14.95;;;6.68;;
47053;SDS011;32811;52.382;5.270;2023-11-21T03:37:41;9.95;;;5.95;;
47053;SDS011;32811;52.382;5.270;2023-11-21T03:40:09;13.02;;;5.88;;
47053;SDS011;32811;52.382;5.270;2023-11-21T03:42:36;9.18;;;6.88;;
47053;SDS011;32811;52.382;5.270;2023-11-21T03:45:03;11.95;;;6.75;;
47053;SDS011;32811;52.382;5.270;2023-11-21T03:47:30;8.73;;;4.95;;
47053;SDS011;32811;52.382;5.270;2023-11-21T03:49:56;11.32;;;5.22;;
47053;SDS011;32811;52.382;5.270;2023-11-21T03:52:24;10.23;;;5.32;;
47053;SDS011;32811;52.382;5.270;2023-11-21T03:54:51;13.88;;;5.25;;
47053;SDS011;32811;52.382;5.270;2023-11-21T03:57:20;10.65;;;6.00;;
47053;SDS011;32811;52.382;5.270;2023-11-21T03:59:47;7.85;;;5.18;;
47053;SDS011;32811;52.382;5.270;2023-11-21T04:02:14;9.02;;;5.15;;
47053;SDS011;32811;52.382;5.270;2023-11-21T04:04:41;9.25;;;5.40;;
47053;SDS011;32811;52.382;5.270;2023-11-21T04:07:08;9.70;;;4.75;;
47053;SDS011;32811;52.382;5.270;2023-11-21T04:09:34;8.63;;;5.38;;
47053;SDS011;32811;52.382;5.270;2023-11-21T04:12:02;12.50;;;5.00;;
47053;SDS011;32811;52.382;5.270;2023-11-21T04:14:29;14.18;;;5.20;;
47053;SDS011;32811;52.382;5.270;2023-11-21T04:16:56;10.52;;;4.57;;
47053;SDS011;32811;52.382;5.270;2023-11-21T04:19:23;7.75;;;5.55;;
47053;SDS011;32811;52.382;5.270;2023-11-21T04:21:49;8.15;;;4.88;;
47053;SDS011;32811;52.382;5.270;2023-11-21T04:24:16;6.90;;;5.18;;
47053;SDS011;32811;52.382;5.270;2023-11-21T04:26:43;12.88;;;6.35;;
47053;SDS011;32811;52.382;5.270;2023-11-21T04:29:18;9.70;;;5.60;;
47053;SDS011;32811;52.382;5.270;2023-11-21T04:31:47;13.80;;;6.80;;
47053;SDS011;32811;52.382;5.270;2023-11-21T04:34:15;8.75;;;4.35;;
47053;SDS011;32811;52.382;5.270;2023-11-21T04:36:42;8.13;;;5.47;;
47053;SDS011;32811;52.382;5.270;2023-11-21T04:39:11;7.40;;;4.95;;
47053;SDS011;32811;52.382;5.270;2023-11-21T04:41:38;17.40;;;6.57;;
47053;SDS011;32811;52.382;5.270;2023-11-21T04:44:07;13.80;;;5.85;;
47053;SDS011;32811;52.382;5.270;2023-11-21T04:46:34;12.07;;;4.90;;
47053;SDS011;32811;52.382;5.270;2023-11-21T04:49:01;18.63;;;5.90;;
47053;SDS011;32811;52.382;5.270;2023-11-21T04:51:29;18.13;;;5.10;;
47053;SDS011;32811;52.382;5.270;2023-11-21T04:53:57;11.85;;;5.55;;
47053;SDS011;32811;52.382;5.270;2023-11-21T04:56:24;8.98;;;5.63;;
47053;SDS011;32811;52.382;5.270;2023-11-21T04:58:50;12.30;;;5.28;;
47053;SDS011;32811;52.382;5.270;2023-11-21T05:01:17;11.32;;;5.90;;
47053;SDS011;32811;52.382;5.270;2023-11-21T05:03:44;7.45;;;4.93;;
47053;SDS011;32811;52.382;5.270;2023-11-21T05:06:11;12.05;;;5.53;;
47053;SDS011;32811;52.382;5.270;2023-11-21T05:08:37;12.13;;;6.35;;
47053;SDS011;32811;52.382;5.270;2023-11-21T05:11:04;5.60;;;3.47;;
47053;SDS011;32811;52.382;5.270;2023-11-21T05:13:31;9.68;;;3.97;;
47053;SDS011;32811;52.382;5.270;2023-11-21T05:15:59;7.45;;;4.00;;
47053;SDS011;32811;52.382;5.270;2023-11-21T05:18:26;8.35;;;3.85;;
47053;SDS011;32811;52.382;5.270;2023-11-21T05:20:53;6.40;;;3.20;;
47053;SDS011;32811;52.382;5.270;2023-11-21T05:23:20;7.75;;;3.00;;
47053;SDS011;32811;52.382;5.270;2023-11-21T05:25:46;4.05;;;2.50;;
47053;SDS011;32811;52.382;5.270;2023-11-21T05:28:13;7.15;;;2.92;;
47053;SDS011;32811;52.382;5.270;2023-11-21T05:30:40;3.85;;;2.97;;
47053;SDS011;32811;52.382;5.270;2023-11-21T05:33:07;4.28;;;2.40;;
47053;SDS011;32811;52.382;5.270;2023-11-21T05:35:33;11.27;;;2.67;;
47053;SDS011;32811;52.382;5.270;2023-11-21T05:38:00;5.63;;;2.92;;
47053;SDS011;32811;52.382;5.270;2023-11-21T05:40:26;11.27;;;2.78;;
47053;SDS011;32811;52.382;5.270;2023-11-21T05:42:57;6.45;;;2.80;;
47053;SDS011;32811;52.382;5.270;2023-11-21T05:45:23;7.50;;;2.15;;
47053;SDS011;32811;52.382;5.270;2023-11-21T05:47:50;4.70;;;1.77;;
47053;SDS011;32811;52.382;5.270;2023-11-21T05:50:17;11.05;;;2.08;;
47053;SDS011;32811;52.382;5.270;2023-11-21T05:52:45;4.40;;;1.85;;
47053;SDS011;32811;52.382;5.270;2023-11-21T05:55:13;5.30;;;1.98;;
47053;SDS011;32811;52.382;5.270;2023-11-21T05:57:40;9.23;;;1.60;;
47053;SDS011;32811;52.382;5.270;2023-11-21T06:00:09;9.77;;;2.28;;
47053;SDS011;32811;52.382;5.270;2023-11-21T06:02:39;11.20;;;1.95;;
47053;SDS011;32811;52.382;5.270;2023-11-21T06:05:06;7.45;;;1.90;;
47053;SDS011;32811;52.382;5.270;2023-11-21T06:07:34;8.60;;;1.83;;
47053;SDS011;32811;52.382;5.270;2023-11-21T06:10:07;7.75;;;2.05;;
47053;SDS011;32811;52.382;5.270;2023-11-21T06:12:37;7.10;;;1.75;;
47053;SDS011;32811;52.382;5.270;2023-11-21T06:15:04;11.00;;;2.60;;
47053;SDS011;32811;52.382;5.270;2023-11-21T06:17:33;7.05;;;2.20;;
47053;SDS011;32811;52.382;5.270;2023-11-21T06:20:05;7.32;;;1.80;;
47053;SDS011;32811;52.382;5.270;2023-11-21T06:22:38;5.70;;;3.35;;
47053;SDS011;32811;52.382;5.270;2023-11-21T06:25:06;16.48;;;3.70;;
47053;SDS011;32811;52.382;5.270;2023-11-21T06:27:38;12.80;;;2.25;;
47053;SDS011;32811;52.382;5.270;2023-11-21T06:30:06;23.83;;;4.50;;
47053;SDS011;32811;52.382;5.270;2023-11-21T06:32:35;15.35;;;3.40;;
47053;SDS011;32811;52.382;5.270;2023-11-21T06:35:03;7.75;;;2.22;;
47053;SDS011;32811;52.382;5.270;2023-11-21T06:37:31;14.73;;;3.00;;
47053;SDS011;32811;52.382;5.270;2023-11-21T06:39:59;8.38;;;2.40;;
47053;SDS011;32811;52.382;5.270;2023-11-21T06:42:26;4.97;;;2.35;;
47053;SDS011;32811;52.382;5.270;2023-11-21T06:44:53;5.15;;;2.10;;
47053;SDS011;32811;52.382;5.270;2023-11-21T06:47:23;4.63;;;2.10;;
47053;SDS011;32811;52.382;5.270;2023-11-21T06:49:56;4.65;;;2.47;;
47053;SDS011;32811;52.382;5.270;2023-11-21T06:52:23;4.15;;;1.70;;
47053;SDS011;32811;52.382;5.270;2023-11-21T06:54:50;5.97;;;2.05;;
47053;SDS011;32811;52.382;5.270;2023-11-21T06:57:16;5.85;;;2.40;;
47053;SDS011;32811;52.382;5.270;2023-11-21T06:59:44;4.78;;;2.17;;
47053;SDS011;32811;52.382;5.270;2023-11-21T07:02:11;7.78;;;2.90;;
47053;SDS011;32811;52.382;5.270;2023-11-21T07:04:37;6.10;;;2.88;;
47053;SDS011;32811;52.382;5.270;2023-11-21T07:07:05;6.32;;;2.13;;
47053;SDS011;32811;52.382;5.270;2023-11-21T07:09:33;5.35;;;3.00;;
47053;SDS011;32811;52.382;5.270;2023-11-21T07:12:00;3.80;;;3.08;;
47053;SDS011;32811;52.382;5.270;2023-11-21T07:14:27;7.30;;;3.65;;
47053;SDS011;32811;52.382;5.270;2023-11-21T07:16:54;15.55;;;4.88;;
47053;SDS011;32811;52.382;5.270;2023-11-21T07:19:21;11.50;;;3.63;;
47053;SDS011;32811;52.382;5.270;2023-11-21T07:21:48;7.95;;;3.75;;
47053;SDS011;32811;52.382;5.270;2023-11-21T07:24:17;7.68;;;3.90;;
47053;SDS011;32811;52.382;5.270;2023-11-21T07:26:44;8.45;;;4.72;;
47053;SDS011;32811;52.382;5.270;2023-11-21T07:29:11;7.57;;;4.68;;
47053;SDS011;32811;52.382;5.270;2023-11-21T07:31:38;8.30;;;4.38;;
47053;SDS011;32811;52.382;5.270;2023-11-21T07:34:05;6.57;;;3.92;;
47053;SDS011;32811;52.382;5.270;2023-11-21T07:36:32;8.00;;;4.20;;
47053;SDS011;32811;52.382;5.270;2023-11-21T07:38:58;5.32;;;3.22;;
47053;SDS011;32811;52.382;5.270;2023-11-21T07:41:25;7.40;;;3.47;;
47053;SDS011;32811;52.382;5.270;2023-11-21T07:43:57;5.47;;;3.45;;
47053;SDS011;32811;52.382;5.270;2023-11-21T07:46:25;4.03;;;2.67;;
47053;SDS011;32811;52.382;5.270;2023-11-21T07:48:53;6.25;;;3.03;;
47053;SDS011;32811;52.382;5.270;2023-11-21T07:51:21;6.43;;;2.63;;
47053;SDS011;32811;52.382;5.270;2023-11-21T07:53:48;4.60;;;2.75;;
47053;SDS011;32811;52.382;5.270;2023-11-21T07:56:16;4.95;;;3.40;;
47053;SDS011;32811;52.382;5.270;2023-11-21T07:58:42;2.92;;;2.28;;
47053;SDS011;32811;52.382;5.270;2023-11-21T08:01:09;6.75;;;2.92;;
47053;SDS011;32811;52.382;5.270;2023-11-21T08:03:36;6.15;;;3.35;;
47053;SDS011;32811;52.382;5.270;2023-11-21T08:06:03;5.70;;;3.60;;
47053;SDS011;32811;52.382;5.270;2023-11-21T08:08:33;3.88;;;3.00;;
47053;SDS011;32811;52.382;5.270;2023-11-21T08:10:59;3.40;;;2.53;;
47053;SDS011;32811;52.382;5.270;2023-11-21T08:13:28;4.05;;;2.45;;
47053;SDS011;32811;52.382;5.270;2023-11-21T08:15:58;5.63;;;2.60;;
47053;SDS011;32811;52.382;5.270;2023-11-21T08:18:31;6.63;;;2.78;;
47053;SDS011;32811;52.382;5.270;2023-11-21T08:20:58;3.22;;;2.45;;
47053;SDS011;32811;52.382;5.270;2023-11-21T08:23:24;4.90;;;3.38;;
47053;SDS011;32811;52.382;5.270;2023-11-21T08:25:52;5.15;;;2.70;;
47053;SDS011;32811;52.382;5.270;2023-11-21T08:28:20;3.72;;;2.58;;
47053;SDS011;32811;52.382;5.270;2023-11-21T08:30:52;2.95;;;2.50;;
47053;SDS011;32811;52.382;5.270;2023-11-21T08:33:21;2.60;;;2.08;;
47053;SDS011;32811;52.382;5.270;2023-11-21T08:35:47;4.60;;;2.47;;
47053;SDS011;32811;52.382;5.270;2023-11-21T08:38:15;2.75;;;2.00;;
47053;SDS011;32811;52.382;5.270;2023-11-21T08:40:41;5.40;;;2.40;;
47053;SDS011;32811;52.382;5.270;2023-11-21T08:43:08;3.65;;;2.70;;
47053;SDS011;32811;52.382;5.270;2023-11-21T08:45:35;6.93;;;2.83;;
47053;SDS011;32811;52.382;5.270;2023-11-21T08:48:01;4.82;;;2.83;;
47053;SDS011;32811;52.382;5.270;2023-11-21T08:50:29;4.20;;;2.30;;
47053;SDS011;32811;52.382;5.270;2023-11-21T08:52:55;4.90;;;3.28;;
47053;SDS011;32811;52.382;5.270;2023-11-21T08:55:23;5.65;;;3.08;;
47053;SDS011;32811;52.382;5.270;2023-11-21T08:57:50;4.88;;;3.80;;
47053;SDS011;32811;52.382;5.270;2023-11-21T09:00:17;4.78;;;3.30;;
47053;SDS011;32811;52.382;5.270;2023-11-21T09:02:45;5.40;;;3.65;;
47053;SDS011;32811;52.382;5.270;2023-11-21T09:05:12;8.88;;;5.53;;
47053;SDS011;32811;52.382;5.270;2023-11-21T09:07:40;4.57;;;3.03;;
47053;SDS011;32811;52.382;5.270;2023-11-21T09:10:08;5.75;;;4.00;;
47053;SDS011;32811;52.382;5.270;2023-11-21T09:12:36;7.05;;;4.05;;
47053;SDS011;32811;52.382;5.270;2023-11-21T09:15:04;4.82;;;3.47;;
47053;SDS011;32811;52.382;5.270;2023-11-21T09:17:32;4.60;;;3.55;;
47053;SDS011;32811;52.382;5.270;2023-11-21T09:20:01;8.38;;;5.50;;
47053;SDS011;32811;52.382;5.270;2023-11-21T09:22:32;5.43;;;3.28;;
47053;SDS011;32811;52.382;5.270;2023-11-21T09:24:59;7.55;;;3.63;;
47053;SDS011;32811;52.382;5.270;2023-11-21T09:27:26;8.13;;;3.58;;
47053;SDS011;32811;52.382;5.270;2023-11-21T09:29:53;6.88;;;4.15;;
47053;SDS011;32811;52.382;5.270;2023-11-21T09:32:20;6.50;;;3.92;;
47053;SDS011;32811;52.382;5.270;2023-11-21T09:34:48;6.32;;;4.53;;
47053;SDS011;32811;52.382;5.270;2023-11-21T09:37:16;7.00;;;4.85;;
47053;SDS011;32811;52.382;5.270;2023-11-21T09:39:43;11.23;;;5.47;;
47053;SDS011;32811;52.382;5.270;2023-11-21T09:44:44;12.85;;;7.22;;
47053;SDS011;32811;52.382;5.270;2023-11-21T09:47:15;11.13;;;6.95;;
47053;SDS011;32811;52.382;5.270;2023-11-21T09:49:45;10.98;;;7.15;;
47053;SDS011;32811;52.382;5.270;2023-11-21T09:52:16;11.05;;;6.85;;
47053;SDS011;32811;52.382;5.270;2023-11-21T09:54:54;10.98;;;6.97;;
47053;SDS011;32811;52.382;5.270;2023-11-21T09:57:25;13.25;;;7.13;;
47053;SDS011;32811;52.382;5.270;2023-11-21T09:59:52;11.57;;;6.60;;
47053;SDS011;32811;52.382;5.270;2023-11-21T10:02:26;10.63;;;6.57;;
47053;SDS011;32811;52.382;5.270;2023-11-21T10:04:58;10.43;;;7.03;;
47053;SDS011;32811;52.382;5.270;2023-11-21T10:07:26;11.32;;;7.10;;
47053;SDS011;32811;52.382;5.270;2023-11-21T10:09:55;13.38;;;6.88;;
47053;SDS011;32811;52.382;5.270;2023-11-21T10:12:22;12.20;;;6.53;;
47053;SDS011;32811;52.382;5.270;2023-11-21T10:14:50;9.43;;;6.25;;
47053;SDS011;32811;52.382;5.270;2023-11-21T10:17:20;12.98;;;6.90;;
47053;SDS011;32811;52.382;5.270;2023-11-21T10:19:49;12.27;;;6.45;;
47053;SDS011;32811;52.382;5.270;2023-11-21T10:22:16;7.57;;;6.22;;
47053;SDS011;32811;52.382;5.270;2023-11-21T10:24:43;10.85;;;6.22;;
47053;SDS011;32811;52.382;5.270;2023-11-21T10:27:19;10.70;;;6.38;;
47053;SDS011;32811;52.382;5.270;2023-11-21T10:29:45;13.70;;;7.68;;
47053;SDS011;32811;52.382;5.270;2023-11-21T10:32:12;9.20;;;5.97;;
47053;SDS011;32811;52.382;5.270;2023-11-21T10:34:39;10.55;;;7.20;;
47053;SDS011;32811;52.382;5.270;2023-11-21T10:37:13;8.50;;;6.38;;
47053;SDS011;32811;52.382;5.270;2023-11-21T10:39:43;8.77;;;6.32;;
47053;SDS011;32811;52.382;5.270;2023-11-21T10:42:11;9.80;;;5.97;;
47053;SDS011;32811;52.382;5.270;2023-11-21T10:44:38;10.55;;;6.70;;
47053;SDS011;32811;52.382;5.270;2023-11-21T10:47:08;11.15;;;6.47;;
47053;SDS011;32811;52.382;5.270;2023-11-21T10:49:35;10.52;;;6.07;;
47053;SDS011;32811;52.382;5.270;2023-11-21T10:52:03;7.70;;;5.70;;
47053;SDS011;32811;52.382;5.270;2023-11-21T10:54:30;6.05;;;4.53;;
47053;SDS011;32811;52.382;5.270;2023-11-21T10:56:57;9.38;;;5.75;;
47053;SDS011;32811;52.382;5.270;2023-11-21T10:59:32;9.30;;;6.45;;
47053;SDS011;32811;52.382;5.270;2023-11-21T11:01:59;8.02;;;4.75;;
47053;SDS011;32811;52.382;5.270;2023-11-21T11:04:32;6.28;;;4.70;;
47053;SDS011;32811;52.382;5.270;2023-11-21T11:07:06;6.05;;;4.20;;
47053;SDS011;32811;52.382;5.270;2023-11-21T11:09:41;7.32;;;4.00;;
47053;SDS011;32811;52.382;5.270;2023-11-21T11:14:41;10.73;;;6.07;;
47053;SDS011;32811;52.382;5.270;2023-11-21T11:17:09;9.38;;;4.78;;
47053;SDS011;32811;52.382;5.270;2023-11-21T11:19:37;9.90;;;5.72;;
47053;SDS011;32811;52.382;5.270;2023-11-21T11:33:10;20.27;;;11.48;;
47053;SDS011;32811;52.382;5.270;2023-11-21T11:35:56;17.63;;;10.85;;
47053;SDS011;32811;52.382;5.270;2023-11-21T11:38:31;26.08;;;13.27;;
47053;SDS011;32811;52.382;5.270;2023-11-21T11:41:03;23.75;;;11.95;;
47053;SDS011;32811;52.382;5.270;2023-11-21T11:43:31;19.65;;;11.23;;
47053;SDS011;32811;52.382;5.270;2023-11-21T11:45:59;21.65;;;11.13;;
47053;SDS011;32811;52.382;5.270;2023-11-21T11:48:30;21.92;;;13.07;;
47053;SDS011;32811;52.382;5.270;2023-11-21T11:53:33;16.42;;;10.63;;
47053;SDS011;32811;52.382;5.270;2023-11-21T11:58:49;20.67;;;10.20;;
47053;SDS011;32811;52.382;5.270;2023-11-21T12:01:20;18.40;;;10.55;;
47053;SDS011;32811;52.382;5.270;2023-11-21T12:07:01;16.58;;;9.77;;
47053;SDS011;32811;52.382;5.270;2023-11-21T12:09:30;19.27;;;10.18;;
47053;SDS011;32811;52.382;5.270;2023-11-21T12:11:57;15.65;;;10.00;;
47053;SDS011;32811;52.382;5.270;2023-11-21T12:14:24;17.50;;;10.38;;
47053;SDS011;32811;52.382;5.270;2023-11-21T12:16:51;13.35;;;9.80;;
47053;SDS011;32811;52.382;5.270;2023-11-21T12:19:19;19.73;;;10.05;;
47053;SDS011;32811;52.382;5.270;2023-11-21T12:21:47;12.00;;;9.02;;
47053;SDS011;32811;52.382;5.270;2023-11-21T12:24:15;15.07;;;10.50;;
47053;SDS011;32811;52.382;5.270;2023-11-21T12:26:42;14.77;;;9.55;;
47053;SDS011;32811;52.382;5.270;2023-11-21T12:29:10;12.18;;;9.18;;
47053;SDS011;32811;52.382;5.270;2023-11-21T12:31:37;13.82;;;9.75;;
47053;SDS011;32811;52.382;5.270;2023-11-21T12:34:04;13.70;;;9.45;;
47053;SDS011;32811;52.382;5.270;2023-11-21T12:36:32;13.38;;;9.45;;
47053;SDS011;32811;52.382;5.270;2023-11-21T12:39:01;11.20;;;7.95;;
47053;SDS011;32811;52.382;5.270;2023-11-21T12:41:29;11.30;;;8.30;;
47053;SDS011;32811;52.382;5.270;2023-11-21T12:43:57;12.20;;;8.07;;
47053;SDS011;32811;52.382;5.270;2023-11-21T12:46:24;11.30;;;8.55;;
47053;SDS011;32811;52.382;5.270;2023-11-21T12:48:54;14.38;;;9.75;;
47053;SDS011;32811;52.382;5.270;2023-11-21T12:51:21;11.27;;;8.65;;
47053;SDS011;32811;52.382;5.270;2023-11-21T12:53:48;13.40;;;9.60;;
47053;SDS011;32811;52.382;5.270;2023-11-21T12:56:16;13.43;;;9.02;;
47053;SDS011;32811;52.382;5.270;2023-11-21T12:58:44;11.85;;;8.07;;
47053;SDS011;32811;52.382;5.270;2023-11-21T13:01:14;16.00;;;9.40;;
47053;SDS011;32811;52.382;5.270;2023-11-21T13:03:48;32.30;;;9.32;;
47053;SDS011;32811;52.382;5.270;2023-11-21T13:06:18;11.65;;;8.07;;
47053;SDS011;32811;52.382;5.270;2023-11-21T13:08:46;14.80;;;8.63;;
47053;SDS011;32811;52.382;5.270;2023-11-21T13:11:13;13.77;;;9.15;;
47053;SDS011;32811;52.382;5.270;2023-11-21T13:13:42;14.50;;;9.15;;
47053;SDS011;32811;52.382;5.270;2023-11-21T13:16:10;13.70;;;9.25;;
47053;SDS011;32811;52.382;5.270;2023-11-21T13:18:37;13.00;;;9.38;;
47053;SDS011;32811;52.382;5.270;2023-11-21T13:21:08;13.10;;;9.05;;
47053;SDS011;32811;52.382;5.270;2023-11-21T13:23:44;13.98;;;9.13;;
47053;SDS011;32811;52.382;5.270;2023-11-21T13:26:13;15.70;;;10.02;;
47053;SDS011;32811;52.382;5.270;2023-11-21T13:28:41;13.30;;;9.25;;
47053;SDS011;32811;52.382;5.270;2023-11-21T13:31:13;12.63;;;9.25;;
47053;SDS011;32811;52.382;5.270;2023-11-21T13:33:58;10.63;;;8.23;;
47053;SDS011;32811;52.382;5.270;2023-11-21T13:36:31;10.00;;;8.32;;
47053;SDS011;32811;52.382;5.270;2023-11-21T13:39:02;8.80;;;6.85;;
47053;SDS011;32811;52.382;5.270;2023-11-21T13:41:35;9.10;;;7.00;;
47053;SDS011;32811;52.382;5.270;2023-11-21T13:44:04;11.13;;;7.40;;
47053;SDS011;32811;52.382;5.270;2023-11-21T13:46:53;8.13;;;6.18;;
47053;SDS011;32811;52.382;5.270;2023-11-21T13:49:23;8.65;;;6.25;;
47053;SDS011;32811;52.382;5.270;2023-11-21T13:51:50;6.68;;;5.68;;
47053;SDS011;32811;52.382;5.270;2023-11-21T13:54:19;6.28;;;5.47;;
47053;SDS011;32811;52.382;5.270;2023-11-21T13:56:47;6.93;;;5.53;;
47053;SDS011;32811;52.382;5.270;2023-11-21T13:59:16;6.38;;;5.72;;
47053;SDS011;32811;52.382;5.270;2023-11-21T14:01:49;6.07;;;5.47;;
47053;SDS011;32811;52.382;5.270;2023-11-21T14:04:20;7.18;;;6.30;;
47053;SDS011;32811;52.382;5.270;2023-11-21T14:07:05;7.88;;;6.63;;
47053;SDS011;32811;52.382;5.270;2023-11-21T14:09:53;8.05;;;7.03;;
47053;SDS011;32811;52.382;5.270;2023-11-21T14:12:19;11.20;;;6.63;;
47053;SDS011;32811;52.382;5.270;2023-11-21T14:14:46;9.05;;;6.72;;
47053;SDS011;32811;52.382;5.270;2023-11-21T14:17:14;10.15;;;7.40;;
47053;SDS011;32811;52.382;5.270;2023-11-21T14:19:40;8.60;;;7.03;;
47053;SDS011;32811;52.382;5.270;2023-11-21T14:22:10;7.93;;;7.03;;
47053;SDS011;32811;52.382;5.270;2023-11-21T14:24:37;10.38;;;8.15;;
47053;SDS011;32811;52.382;5.270;2023-11-21T14:27:07;9.60;;;7.15;;
47053;SDS011;32811;52.382;5.270;2023-11-21T14:29:34;8.70;;;7.70;;
47053;SDS011;32811;52.382;5.270;2023-11-21T14:32:06;9.52;;;7.00;;
47053;SDS011;32811;52.382;5.270;2023-11-21T14:34:36;7.65;;;6.32;;
47053;SDS011;32811;52.382;5.270;2023-11-21T14:37:04;8.30;;;6.15;;
47053;SDS011;32811;52.382;5.270;2023-11-21T14:39:31;6.45;;;5.85;;
47053;SDS011;32811;52.382;5.270;2023-11-21T14:42:01;7.70;;;6.50;;
47053;SDS011;32811;52.382;5.270;2023-11-21T14:44:29;6.93;;;6.22;;
47053;SDS011;32811;52.382;5.270;2023-11-21T14:47:01;6.80;;;5.25;;
47053;SDS011;32811;52.382;5.270;2023-11-21T14:49:33;6.03;;;5.25;;
47053;SDS011;32811;52.382;5.270;2023-11-21T14:52:16;5.28;;;4.47;;
47053;SDS011;32811;52.382;5.270;2023-11-21T14:54:55;11.32;;;5.75;;
47053;SDS011;32811;52.382;5.270;2023-11-21T14:57:42;5.43;;;4.93;;
47053;SDS011;32811;52.382;5.270;2023-11-21T15:00:16;5.65;;;5.10;;
47053;SDS011;32811;52.382;5.270;2023-11-21T15:03:00;7.32;;;5.32;;
47053;SDS011;32811;52.382;5.270;2023-11-21T15:05:27;7.20;;;5.70;;
47053;SDS011;32811;52.382;5.270;2023-11-21T15:07:54;7.65;;;6.00;;
47053;SDS011;32811;52.382;5.270;2023-11-21T15:10:40;6.15;;;5.47;;
47053;SDS011;32811;52.382;5.270;2023-11-21T15:13:14;7.63;;;5.72;;